• Join FlightAware (Why Join?)
  • Login
  • US Flag 
12:36PM EDT


 

Airport Tracker/Info


-or-


 

Live Flight TrackerFlight Track Log ✈ N588AC ✈ 26-Apr-2013 ✈ KBKL - KBCB

Flight Track Log - Related Links

Times and Time Zones

All times are in EDT time to prevent confusion due to time zone crossing. See the N588AC flight status page for this flight to view local times or setup timezone preferences in your user account.

Time Position Orientation Groundspeed Altitude Reporting Facility
EDT Latitude Longitude Course Direction KTS MPH feet Rate Location/Type
03:18PM 41.5253 -81.6703 352° North 166 191 1,400  Level Cleveland Center
03:19PM 41.6044 -81.6856 352° North 267 307 2,000 420 Climbing Cleveland Center
03:20PM 41.6708 -81.7172 340° North 254 292 2,400 780 Climbing Cleveland Center
03:21PM 41.7014 -81.7928 298° West 261 300 3,600 2,100 Climbing Cleveland Center
03:22PM 41.7169 -81.8989 281° West 271 312 6,700 3,000 Climbing Cleveland Center
03:23PM 41.7239 -81.9964 275° West 266 306 9,700 2,820 Climbing Cleveland Center
03:24PM 41.7278 -82.0383 277° West 259 298 10,900 1,620 Climbing Cleveland Center
03:25PM 41.6869 -82.1181 236° Southwest 321 369 12,000 540 Climbing Cleveland Center
03:26PM 41.5872 -82.1072 175° South 370 426 12,000 480 Level Cleveland Center
03:27PM 41.4933 -82.0939 174° South 353 406 13,100 1,800 Climbing Cleveland Center
03:28PM 41.3978 -82.0833 175° South 348 400 15,700 2,220 Climbing Cleveland Center
03:29PM 41.3144 -82.0703 173° South 348 400 17,600 1,860 Climbing Cleveland Center
03:31PM 41.1283 -82.1242 192° South 330 380 21,400 1,920 Climbing Cleveland Center
03:32PM 41.0442 -82.1661 201° Southwest 330 380 23,500 1,800 Climbing Cleveland Center
03:33PM 40.9506 -82.1667 180° South 330 380 25,100 1,260 Climbing Cleveland Center
03:34PM 40.8017 -82.0911 159° South 385 443 26,900 720 Climbing Indianapolis Center
03:35PM 40.6894 -82.0511 165° South 408 470 27,000 600 Climbing Indianapolis Center
03:37PM 40.5731 -82.0058 164° South 431 496 28,200 1,560 Climbing Indianapolis Center
03:38PM 40.4436 -81.9547 163° South 416 479 30,300 1,800 Climbing Indianapolis Center
03:39PM 40.3356 -81.9094 162° South 408 470 32,000 1,680 Climbing Indianapolis Center
03:40PM 40.2289 -81.8636 162° South 394 453 33,800 1,620 Climbing Indianapolis Center
03:41PM 40.1272 -81.8169 161° South 384 442 35,400 1,200 Climbing Indianapolis Center
03:42PM 40.0297 -81.7728 161° South 382 440 36,400 720 Climbing Indianapolis Center
03:43PM 39.9206 -81.7242 161° South 395 455 37,000 240 Climbing Indianapolis Center
03:44PM 39.8094 -81.6764 162° South 414 476 37,000  Level Indianapolis Center
03:45PM 39.6933 -81.6297 163° South 431 496 37,000  Level Indianapolis Center
03:46PM 39.5783 -81.5739 159° South 441 507 37,000  Level Indianapolis Center
03:47PM 39.4394 -81.5022 158° South 445 512 37,000  Level Indianapolis Center
03:48PM 39.3228 -81.4425 158° South 448 516 37,000  Level Indianapolis Center
03:49PM 39.2058 -81.3836 159° South 448 516 37,000  Level Indianapolis Center
03:50PM 39.0892 -81.3253 159° South 446 513 37,000  Level Indianapolis Center
03:51PM 38.9714 -81.2672 159° South 448 516 37,000  Level Indianapolis Center
03:52PM 38.8547 -81.2086 159° South 443 510 37,000 -180 Level Indianapolis Center
03:53PM 38.7367 -81.1497 159° South 447 514 36,700 -1,320 Descending Indianapolis Center
03:54PM 38.6231 -81.0931 159° South 436 502 34,300 -2,400 Descending Indianapolis Center
03:55PM 38.5164 -81.0406 159° South 412 474 31,800 -2,640 Descending Indianapolis Center
03:56PM 38.3872 -80.9778 159° South 410 472 28,900 -2,400 Descending Indianapolis Center
03:57PM 38.2731 -80.9222 159° South 433 498 26,900 -1,800 Descending Indianapolis Center
03:58PM 38.1653 -80.8767 162° South 438 504 25,200 -1,800 Descending Washington Center
03:59PM 38.0633 -80.8244 158° South 426 490 23,300 -1,920 Descending Washington Center
04:00PM 37.9611 -80.7753 159° South 404 465 21,400 -2,100 Descending Washington Center
04:01PM 37.8550 -80.7233 159° South 383 441 19,100 -2,100 Descending Washington Center
04:02PM 37.7547 -80.6744 159° South 383 441 17,200 -2,100 Descending Washington Center
04:03PM 37.6608 -80.6286 159° South 383 441 15,000 -2,100 Descending Washington Center
04:04PM 37.5789 -80.5892 159° South 369 425 13,100 -1,860 Descending Washington Center
04:05PM 37.4950 -80.5497 160° South 347 399 11,300 -1,260 Descending Washington Center
04:06PM 37.4133 -80.5103 159° South 328 377 10,600 -1,260 Descending Washington Center
04:07PM 37.3333 -80.4711 159° South 299 344 8,800 -2,220 Descending Washington Center
04:08PM 37.2639 -80.4381 159° South 278 320 6,200 -2,040 Descending Washington Center
04:09PM 37.2042 -80.4186 165° South 252 290 4,800 -1,440 Descending Washington Center
04:10PM 37.1592 -80.3950 157° South 210 242 3,400 -900 Descending Washington Center
04:11PM 37.1833 -80.3678 42° Northeast 109 125 3,100 -480 Descending Washington Center
04:12PM 37.2056 -80.3875 325° Northwest 58 67 2,500 -600 Descending Washington Center